sensor_id;sensor_type;location;lat;lon;timestamp;temperature;humidity
22491;DHT22;11412;50.802;4.350;2023-04-03T00:00:41;3.60;99.90
22491;DHT22;11412;50.802;4.350;2023-04-03T00:03:07;3.60;99.90
22491;DHT22;11412;50.802;4.350;2023-04-03T00:05:33;3.60;99.90
22491;DHT22;11412;50.802;4.350;2023-04-03T00:07:59;3.50;99.90
22491;DHT22;11412;50.802;4.350;2023-04-03T00:10:25;3.80;99.90
22491;DHT22;11412;50.802;4.350;2023-04-03T00:12:50;3.80;99.90
22491;DHT22;11412;50.802;4.350;2023-04-03T00:15:17;3.90;99.90
22491;DHT22;11412;50.802;4.350;2023-04-03T00:17:42;3.70;99.90
22491;DHT22;11412;50.802;4.350;2023-04-03T00:20:08;3.90;99.90
22491;DHT22;11412;50.802;4.350;2023-04-03T00:22:34;3.80;99.90
22491;DHT22;11412;50.802;4.350;2023-04-03T00:25:00;3.80;99.90
22491;DHT22;11412;50.802;4.350;2023-04-03T00:27:26;4.00;99.90
22491;DHT22;11412;50.802;4.350;2023-04-03T00:29:51;4.00;99.90
22491;DHT22;11412;50.802;4.350;2023-04-03T00:32:17;3.90;99.90
22491;DHT22;11412;50.802;4.350;2023-04-03T00:34:43;4.00;99.90
22491;DHT22;11412;50.802;4.350;2023-04-03T00:37:09;4.00;99.90
22491;DHT22;11412;50.802;4.350;2023-04-03T00:39:34;4.20;99.90
22491;DHT22;11412;50.802;4.350;2023-04-03T00:42:00;4.20;99.90
22491;DHT22;11412;50.802;4.350;2023-04-03T00:47:03;4.30;99.90
22491;DHT22;11412;50.802;4.350;2023-04-03T00:49:29;4.30;99.90
22491;DHT22;11412;50.802;4.350;2023-04-03T00:51:55;4.40;99.90
22491;DHT22;11412;50.802;4.350;2023-04-03T00:54:22;4.50;99.90
22491;DHT22;11412;50.802;4.350;2023-04-03T00:56:49;4.60;99.90
22491;DHT22;11412;50.802;4.350;2023-04-03T00:59:20;4.60;99.90
22491;DHT22;11412;50.802;4.350;2023-04-03T01:01:48;4.70;99.90
22491;DHT22;11412;50.802;4.350;2023-04-03T01:04:32;4.60;99.90
22491;DHT22;11412;50.802;4.350;2023-04-03T01:07:02;4.40;99.90
22491;DHT22;11412;50.802;4.350;2023-04-03T01:09:29;4.30;99.90
22491;DHT22;11412;50.802;4.350;2023-04-03T01:14:45;4.20;99.90
22491;DHT22;11412;50.802;4.350;2023-04-03T01:17:33;4.40;99.90
22491;DHT22;11412;50.802;4.350;2023-04-03T01:20:31;4.50;99.90
22491;DHT22;11412;50.802;4.350;2023-04-03T01:25:50;4.60;99.90
22491;DHT22;11412;50.802;4.350;2023-04-03T01:28:24;4.50;99.90
22491;DHT22;11412;50.802;4.350;2023-04-03T01:33:44;4.40;99.90
22491;DHT22;11412;50.802;4.350;2023-04-03T01:36:15;4.30;99.90
22491;DHT22;11412;50.802;4.350;2023-04-03T01:38:41;4.40;99.90
22491;DHT22;11412;50.802;4.350;2023-04-03T01:41:07;4.30;99.90
22491;DHT22;11412;50.802;4.350;2023-04-03T01:43:32;4.20;99.90
22491;DHT22;11412;50.802;4.350;2023-04-03T01:45:58;4.20;99.90
22491;DHT22;11412;50.802;4.350;2023-04-03T01:48:24;4.10;99.90
22491;DHT22;11412;50.802;4.350;2023-04-03T01:50:50;4.20;99.90
22491;DHT22;11412;50.802;4.350;2023-04-03T01:53:16;4.50;99.90
22491;DHT22;11412;50.802;4.350;2023-04-03T01:55:42;4.20;99.90
22491;DHT22;11412;50.802;4.350;2023-04-03T01:58:09;4.10;99.90
22491;DHT22;11412;50.802;4.350;2023-04-03T02:00:34;4.10;99.90
22491;DHT22;11412;50.802;4.350;2023-04-03T02:03:01;4.40;99.90
22491;DHT22;11412;50.802;4.350;2023-04-03T02:05:27;4.30;99.90
22491;DHT22;11412;50.802;4.350;2023-04-03T02:07:54;4.40;99.90
22491;DHT22;11412;50.802;4.350;2023-04-03T02:10:22;4.20;99.90
22491;DHT22;11412;50.802;4.350;2023-04-03T02:12:48;4.40;99.90
22491;DHT22;11412;50.802;4.350;2023-04-03T02:15:13;4.10;99.90
22491;DHT22;11412;50.802;4.350;2023-04-03T02:17:39;4.10;99.90
22491;DHT22;11412;50.802;4.350;2023-04-03T02:20:05;3.90;99.90
22491;DHT22;11412;50.802;4.350;2023-04-03T02:22:31;4.00;99.90
22491;DHT22;11412;50.802;4.350;2023-04-03T02:24:57;4.00;99.90
22491;DHT22;11412;50.802;4.350;2023-04-03T02:27:23;4.10;99.90
22491;DHT22;11412;50.802;4.350;2023-04-03T02:29:48;3.90;99.90
22491;DHT22;11412;50.802;4.350;2023-04-03T02:32:14;3.90;99.90
22491;DHT22;11412;50.802;4.350;2023-04-03T02:34:39;3.80;99.90
22491;DHT22;11412;50.802;4.350;2023-04-03T02:37:05;3.80;99.90
22491;DHT22;11412;50.802;4.350;2023-04-03T02:39:34;4.00;99.90
22491;DHT22;11412;50.802;4.350;2023-04-03T02:42:01;3.90;99.90
22491;DHT22;11412;50.802;4.350;2023-04-03T02:44:26;3.80;99.90
22491;DHT22;11412;50.802;4.350;2023-04-03T02:46:52;3.60;99.90
22491;DHT22;11412;50.802;4.350;2023-04-03T02:49:18;3.60;99.90
22491;DHT22;11412;50.802;4.350;2023-04-03T02:51:43;3.60;99.90
22491;DHT22;11412;50.802;4.350;2023-04-03T02:54:09;3.60;99.90
22491;DHT22;11412;50.802;4.350;2023-04-03T02:56:35;3.50;99.90
22491;DHT22;11412;50.802;4.350;2023-04-03T02:59:00;3.60;99.90
22491;DHT22;11412;50.802;4.350;2023-04-03T03:01:26;3.40;99.90
22491;DHT22;11412;50.802;4.350;2023-04-03T03:03:57;3.40;99.90
22491;DHT22;11412;50.802;4.350;2023-04-03T03:06:23;3.30;99.90
22491;DHT22;11412;50.802;4.350;2023-04-03T03:08:48;3.40;99.90
22491;DHT22;11412;50.802;4.350;2023-04-03T03:11:14;3.40;99.90
22491;DHT22;11412;50.802;4.350;2023-04-03T03:13:40;3.30;99.90
22491;DHT22;11412;50.802;4.350;2023-04-03T03:16:06;3.30;99.90
22491;DHT22;11412;50.802;4.350;2023-04-03T03:18:32;3.10;99.90
22491;DHT22;11412;50.802;4.350;2023-04-03T03:21:00;3.20;99.90
22491;DHT22;11412;50.802;4.350;2023-04-03T03:23:28;3.10;99.90
22491;DHT22;11412;50.802;4.350;2023-04-03T03:25:59;3.10;99.90
22491;DHT22;11412;50.802;4.350;2023-04-03T03:28:25;3.00;99.90
22491;DHT22;11412;50.802;4.350;2023-04-03T03:30:51;2.80;99.90
22491;DHT22;11412;50.802;4.350;2023-04-03T03:33:17;2.80;99.90
22491;DHT22;11412;50.802;4.350;2023-04-03T03:35:44;2.80;99.90
22491;DHT22;11412;50.802;4.350;2023-04-03T03:38:10;2.70;99.90
22491;DHT22;11412;50.802;4.350;2023-04-03T03:40:35;2.80;99.90
22491;DHT22;11412;50.802;4.350;2023-04-03T03:43:01;2.70;99.90
22491;DHT22;11412;50.802;4.350;2023-04-03T03:45:27;2.50;99.90
22491;DHT22;11412;50.802;4.350;2023-04-03T03:47:53;2.50;99.90
22491;DHT22;11412;50.802;4.350;2023-04-03T03:50:18;2.50;99.90
22491;DHT22;11412;50.802;4.350;2023-04-03T03:52:44;2.60;99.90
22491;DHT22;11412;50.802;4.350;2023-04-03T03:55:10;2.50;99.90
22491;DHT22;11412;50.802;4.350;2023-04-03T03:57:36;2.50;99.90
22491;DHT22;11412;50.802;4.350;2023-04-03T04:00:02;2.50;99.90
22491;DHT22;11412;50.802;4.350;2023-04-03T04:02:28;2.40;99.90
22491;DHT22;11412;50.802;4.350;2023-04-03T04:04:54;2.30;99.90
22491;DHT22;11412;50.802;4.350;2023-04-03T04:07:20;2.40;99.90
22491;DHT22;11412;50.802;4.350;2023-04-03T04:09:45;2.50;99.90
22491;DHT22;11412;50.802;4.350;2023-04-03T04:12:11;2.50;99.90
22491;DHT22;11412;50.802;4.350;2023-04-03T04:14:37;2.40;99.90
22491;DHT22;11412;50.802;4.350;2023-04-03T04:17:02;2.60;99.90
22491;DHT22;11412;50.802;4.350;2023-04-03T04:19:28;2.50;99.90
22491;DHT22;11412;50.802;4.350;2023-04-03T04:21:54;2.60;99.90
22491;DHT22;11412;50.802;4.350;2023-04-03T04:24:19;2.40;99.90
22491;DHT22;11412;50.802;4.350;2023-04-03T04:26:45;2.40;99.90
22491;DHT22;11412;50.802;4.350;2023-04-03T04:29:11;2.40;99.90
22491;DHT22;11412;50.802;4.350;2023-04-03T04:31:36;2.50;99.90
22491;DHT22;11412;50.802;4.350;2023-04-03T04:34:02;2.60;99.90
22491;DHT22;11412;50.802;4.350;2023-04-03T04:36:28;2.70;99.90
22491;DHT22;11412;50.802;4.350;2023-04-03T04:38:54;2.70;99.90
22491;DHT22;11412;50.802;4.350;2023-04-03T04:41:20;2.60;99.90
22491;DHT22;11412;50.802;4.350;2023-04-03T04:43:48;2.60;99.90
22491;DHT22;11412;50.802;4.350;2023-04-03T04:46:14;2.60;99.90
22491;DHT22;11412;50.802;4.350;2023-04-03T04:48:40;2.50;99.90
22491;DHT22;11412;50.802;4.350;2023-04-03T04:51:06;2.80;99.90
22491;DHT22;11412;50.802;4.350;2023-04-03T04:53:33;2.90;99.90
22491;DHT22;11412;50.802;4.350;2023-04-03T04:55:59;2.90;99.90
22491;DHT22;11412;50.802;4.350;2023-04-03T04:58:24;2.80;99.90
22491;DHT22;11412;50.802;4.350;2023-04-03T05:00:58;2.90;99.90
22491;DHT22;11412;50.802;4.350;2023-04-03T05:03:24;3.00;99.90
22491;DHT22;11412;50.802;4.350;2023-04-03T05:05:50;2.90;99.90
22491;DHT22;11412;50.802;4.350;2023-04-03T05:08:16;3.10;99.90
22491;DHT22;11412;50.802;4.350;2023-04-03T05:10:41;2.90;99.90
22491;DHT22;11412;50.802;4.350;2023-04-03T05:13:07;2.90;99.90
22491;DHT22;11412;50.802;4.350;2023-04-03T05:15:33;2.90;99.90
22491;DHT22;11412;50.802;4.350;2023-04-03T05:17:59;2.90;99.90
22491;DHT22;11412;50.802;4.350;2023-04-03T05:20:24;2.90;99.90
22491;DHT22;11412;50.802;4.350;2023-04-03T05:22:50;2.90;99.90
22491;DHT22;11412;50.802;4.350;2023-04-03T05:25:16;3.00;99.90
22491;DHT22;11412;50.802;4.350;2023-04-03T05:27:42;3.10;99.90
22491;DHT22;11412;50.802;4.350;2023-04-03T05:30:08;3.10;99.90
22491;DHT22;11412;50.802;4.350;2023-04-03T05:32:34;3.10;99.90
22491;DHT22;11412;50.802;4.350;2023-04-03T05:35:00;3.10;99.90
22491;DHT22;11412;50.802;4.350;2023-04-03T05:37:25;3.00;99.90
22491;DHT22;11412;50.802;4.350;2023-04-03T05:39:51;2.80;99.90
22491;DHT22;11412;50.802;4.350;2023-04-03T05:42:17;2.90;99.90
22491;DHT22;11412;50.802;4.350;2023-04-03T05:44:42;2.80;99.90
22491;DHT22;11412;50.802;4.350;2023-04-03T05:47:08;2.80;99.90
22491;DHT22;11412;50.802;4.350;2023-04-03T05:49:34;2.80;99.90
22491;DHT22;11412;50.802;4.350;2023-04-03T05:52:01;2.80;99.90
22491;DHT22;11412;50.802;4.350;2023-04-03T05:54:28;2.80;99.90
22491;DHT22;11412;50.802;4.350;2023-04-03T05:56:54;2.70;99.90
22491;DHT22;11412;50.802;4.350;2023-04-03T05:59:20;2.80;99.90
22491;DHT22;11412;50.802;4.350;2023-04-03T06:01:47;2.60;99.90
22491;DHT22;11412;50.802;4.350;2023-04-03T06:04:13;2.60;99.90
22491;DHT22;11412;50.802;4.350;2023-04-03T06:06:56;2.60;99.90
22491;DHT22;11412;50.802;4.350;2023-04-03T06:09:25;2.70;99.90
22491;DHT22;11412;50.802;4.350;2023-04-03T06:11:52;2.70;99.90
22491;DHT22;11412;50.802;4.350;2023-04-03T06:14:18;2.80;99.90
22491;DHT22;11412;50.802;4.350;2023-04-03T06:16:44;2.80;99.90
22491;DHT22;11412;50.802;4.350;2023-04-03T06:19:11;3.00;99.90
22491;DHT22;11412;50.802;4.350;2023-04-03T06:21:37;3.10;99.90
22491;DHT22;11412;50.802;4.350;2023-04-03T06:24:04;3.50;99.90
22491;DHT22;11412;50.802;4.350;2023-04-03T06:26:30;3.50;99.90
22491;DHT22;11412;50.802;4.350;2023-04-03T06:28:56;3.60;99.90
22491;DHT22;11412;50.802;4.350;2023-04-03T06:31:22;3.70;99.90
22491;DHT22;11412;50.802;4.350;2023-04-03T06:33:48;3.90;99.90
22491;DHT22;11412;50.802;4.350;2023-04-03T06:36:14;4.20;99.90
22491;DHT22;11412;50.802;4.350;2023-04-03T06:38:45;4.80;99.90
22491;DHT22;11412;50.802;4.350;2023-04-03T06:41:11;5.00;99.90
22491;DHT22;11412;50.802;4.350;2023-04-03T06:43:36;5.50;99.90
22491;DHT22;11412;50.802;4.350;2023-04-03T06:46:02;5.60;99.90
22491;DHT22;11412;50.802;4.350;2023-04-03T06:48:28;5.30;99.90
22491;DHT22;11412;50.802;4.350;2023-04-03T06:50:54;5.50;99.90
22491;DHT22;11412;50.802;4.350;2023-04-03T06:53:20;5.40;99.90
22491;DHT22;11412;50.802;4.350;2023-04-03T06:55:47;6.10;99.90
22491;DHT22;11412;50.802;4.350;2023-04-03T06:58:13;6.20;99.90
22491;DHT22;11412;50.802;4.350;2023-04-03T07:00:40;6.80;99.90
22491;DHT22;11412;50.802;4.350;2023-04-03T07:03:06;7.30;99.90
22491;DHT22;11412;50.802;4.350;2023-04-03T07:05:32;8.30;99.90
22491;DHT22;11412;50.802;4.350;2023-04-03T07:07:58;9.10;99.90
22491;DHT22;11412;50.802;4.350;2023-04-03T07:10:23;9.40;99.90
22491;DHT22;11412;50.802;4.350;2023-04-03T07:12:49;9.50;99.90
22491;DHT22;11412;50.802;4.350;2023-04-03T07:15:15;9.50;99.90
22491;DHT22;11412;50.802;4.350;2023-04-03T07:17:41;9.60;99.90
22491;DHT22;11412;50.802;4.350;2023-04-03T07:20:07;9.10;99.90
22491;DHT22;11412;50.802;4.350;2023-04-03T07:22:33;9.10;99.90
22491;DHT22;11412;50.802;4.350;2023-04-03T07:24:59;9.10;99.90
22491;DHT22;11412;50.802;4.350;2023-04-03T07:27:25;9.50;99.90
22491;DHT22;11412;50.802;4.350;2023-04-03T07:29:51;9.00;99.90
22491;DHT22;11412;50.802;4.350;2023-04-03T07:32:17;8.90;99.90
22491;DHT22;11412;50.802;4.350;2023-04-03T07:34:43;9.10;99.90
22491;DHT22;11412;50.802;4.350;2023-04-03T07:37:09;9.80;99.90
22491;DHT22;11412;50.802;4.350;2023-04-03T07:39:35;9.50;99.90
22491;DHT22;11412;50.802;4.350;2023-04-03T07:42:01;9.20;99.90
22491;DHT22;11412;50.802;4.350;2023-04-03T07:44:28;8.80;99.90
22491;DHT22;11412;50.802;4.350;2023-04-03T07:46:54;8.70;99.90
22491;DHT22;11412;50.802;4.350;2023-04-03T07:49:21;8.70;99.90
22491;DHT22;11412;50.802;4.350;2023-04-03T07:51:48;8.20;99.90
22491;DHT22;11412;50.802;4.350;2023-04-03T07:54:14;8.50;99.90
22491;DHT22;11412;50.802;4.350;2023-04-03T07:56:40;7.90;99.90
22491;DHT22;11412;50.802;4.350;2023-04-03T07:59:08;7.90;99.90
22491;DHT22;11412;50.802;4.350;2023-04-03T08:01:34;7.90;99.90
22491;DHT22;11412;50.802;4.350;2023-04-03T08:04:00;7.90;99.90
22491;DHT22;11412;50.802;4.350;2023-04-03T08:06:26;7.70;99.90
22491;DHT22;11412;50.802;4.350;2023-04-03T08:08:52;7.50;99.90
22491;DHT22;11412;50.802;4.350;2023-04-03T08:11:17;7.40;99.90
22491;DHT22;11412;50.802;4.350;2023-04-03T08:13:44;7.50;99.90
22491;DHT22;11412;50.802;4.350;2023-04-03T08:16:12;7.60;99.90
22491;DHT22;11412;50.802;4.350;2023-04-03T08:18:38;7.80;99.90
22491;DHT22;11412;50.802;4.350;2023-04-03T08:21:11;8.30;99.90
22491;DHT22;11412;50.802;4.350;2023-04-03T08:23:38;8.50;99.90
22491;DHT22;11412;50.802;4.350;2023-04-03T08:26:13;8.50;99.90
22491;DHT22;11412;50.802;4.350;2023-04-03T08:28:40;8.90;99.90
22491;DHT22;11412;50.802;4.350;2023-04-03T08:31:08;9.00;99.90
22491;DHT22;11412;50.802;4.350;2023-04-03T08:33:36;9.90;99.90
22491;DHT22;11412;50.802;4.350;2023-04-03T08:36:06;9.80;99.90
22491;DHT22;11412;50.802;4.350;2023-04-03T08:38:33;9.80;99.90
22491;DHT22;11412;50.802;4.350;2023-04-03T08:41:10;10.70;99.90
22491;DHT22;11412;50.802;4.350;2023-04-03T08:43:58;12.30;99.90
22491;DHT22;11412;50.802;4.350;2023-04-03T08:49:42;14.70;99.90
22491;DHT22;11412;50.802;4.350;2023-04-03T08:52:19;13.90;99.90
22491;DHT22;11412;50.802;4.350;2023-04-03T08:54:53;13.40;99.90
22491;DHT22;11412;50.802;4.350;2023-04-03T08:57:33;13.20;99.90
22491;DHT22;11412;50.802;4.350;2023-04-03T09:00:20;13.20;99.90
22491;DHT22;11412;50.802;4.350;2023-04-03T09:02:48;13.70;99.90
22491;DHT22;11412;50.802;4.350;2023-04-03T09:10:59;13.70;99.90
22491;DHT22;11412;50.802;4.350;2023-04-03T09:19:10;13.00;99.90
22491;DHT22;11412;50.802;4.350;2023-04-03T09:21:39;12.70;99.90
22491;DHT22;11412;50.802;4.350;2023-04-03T09:24:12;12.20;99.90
22491;DHT22;11412;50.802;4.350;2023-04-03T09:26:46;11.90;99.90
22491;DHT22;11412;50.802;4.350;2023-04-03T09:29:23;12.40;99.90
22491;DHT22;11412;50.802;4.350;2023-04-03T09:31:52;12.20;99.90
22491;DHT22;11412;50.802;4.350;2023-04-03T09:34:28;11.80;99.90
22491;DHT22;11412;50.802;4.350;2023-04-03T09:36:58;11.70;99.90
22491;DHT22;11412;50.802;4.350;2023-04-03T09:39:27;12.20;99.90
22491;DHT22;11412;50.802;4.350;2023-04-03T09:42:01;13.00;99.90
22491;DHT22;11412;50.802;4.350;2023-04-03T09:49:51;14.00;99.90
22491;DHT22;11412;50.802;4.350;2023-04-03T09:52:26;14.00;99.90
22491;DHT22;11412;50.802;4.350;2023-04-03T09:54:53;14.00;99.90
22491;DHT22;11412;50.802;4.350;2023-04-03T09:57:21;14.00;99.90
22491;DHT22;11412;50.802;4.350;2023-04-03T10:00:00;14.50;99.90
22491;DHT22;11412;50.802;4.350;2023-04-03T10:02:39;15.00;99.90
22491;DHT22;11412;50.802;4.350;2023-04-03T10:07:50;15.10;99.90
22491;DHT22;11412;50.802;4.350;2023-04-03T10:10:21;14.90;99.90
22491;DHT22;11412;50.802;4.350;2023-04-03T10:13:00;14.20;99.90
22491;DHT22;11412;50.802;4.350;2023-04-03T10:15:32;14.50;99.90
22491;DHT22;11412;50.802;4.350;2023-04-03T10:18:05;14.40;99.90
22491;DHT22;11412;50.802;4.350;2023-04-03T10:20:39;14.20;99.90
22491;DHT22;11412;50.802;4.350;2023-04-03T10:26:41;14.40;99.90
22491;DHT22;11412;50.802;4.350;2023-04-03T10:29:31;14.90;99.90
22491;DHT22;11412;50.802;4.350;2023-04-03T10:32:15;15.10;99.90
22491;DHT22;11412;50.802;4.350;2023-04-03T10:34:44;15.10;99.90
22491;DHT22;11412;50.802;4.350;2023-04-03T10:37:27;14.80;99.90
22491;DHT22;11412;50.802;4.350;2023-04-03T10:42:53;14.70;99.90
22491;DHT22;11412;50.802;4.350;2023-04-03T10:45:34;15.00;99.90
22491;DHT22;11412;50.802;4.350;2023-04-03T10:51:19;14.00;99.90
22491;DHT22;11412;50.802;4.350;2023-04-03T10:54:39;13.60;99.90
22491;DHT22;11412;50.802;4.350;2023-04-03T10:56:47;13.90;99.90
22491;DHT22;11412;50.802;4.350;2023-04-03T11:01:48;14.00;99.90
22491;DHT22;11412;50.802;4.350;2023-04-03T11:04:19;14.10;99.90
22491;DHT22;11412;50.802;4.350;2023-04-03T11:06:51;14.20;99.90
22491;DHT22;11412;50.802;4.350;2023-04-03T11:09:26;14.30;99.90
22491;DHT22;11412;50.802;4.350;2023-04-03T11:11:57;14.40;99.90
22491;DHT22;11412;50.802;4.350;2023-04-03T11:14:27;13.60;99.90
22491;DHT22;11412;50.802;4.350;2023-04-03T11:22:48;13.20;99.90
22491;DHT22;11412;50.802;4.350;2023-04-03T11:25:24;13.90;99.90
22491;DHT22;11412;50.802;4.350;2023-04-03T11:27:57;13.80;99.90
22491;DHT22;11412;50.802;4.350;2023-04-03T11:30:59;14.20;99.90
22491;DHT22;11412;50.802;4.350;2023-04-03T11:33:41;14.20;99.90
22491;DHT22;11412;50.802;4.350;2023-04-03T11:38:46;14.50;99.90
22491;DHT22;11412;50.802;4.350;2023-04-03T11:41:13;15.00;99.90
22491;DHT22;11412;50.802;4.350;2023-04-03T11:46:21;14.80;99.90
22491;DHT22;11412;50.802;4.350;2023-04-03T11:48:49;14.70;99.90
22491;DHT22;11412;50.802;4.350;2023-04-03T11:53:46;14.70;99.90
22491;DHT22;11412;50.802;4.350;2023-04-03T12:01:44;14.50;99.90
22491;DHT22;11412;50.802;4.350;2023-04-03T12:04:12;14.20;99.90
22491;DHT22;11412;50.802;4.350;2023-04-03T12:12:30;14.80;99.90
22491;DHT22;11412;50.802;4.350;2023-04-03T12:15:22;15.10;99.90
22491;DHT22;11412;50.802;4.350;2023-04-03T12:17:49;15.20;99.30
22491;DHT22;11412;50.802;4.350;2023-04-03T12:23:31;15.30;98.30
22491;DHT22;11412;50.802;4.350;2023-04-03T12:26:08;15.00;99.50
22491;DHT22;11412;50.802;4.350;2023-04-03T12:28:45;15.30;99.90
22491;DHT22;11412;50.802;4.350;2023-04-03T12:31:12;15.20;97.40
22491;DHT22;11412;50.802;4.350;2023-04-03T12:34:04;15.00;98.10
22491;DHT22;11412;50.802;4.350;2023-04-03T12:39:46;14.80;96.50
22491;DHT22;11412;50.802;4.350;2023-04-03T12:42:41;14.10;96.80
22491;DHT22;11412;50.802;4.350;2023-04-03T12:45:21;14.50;97.20
22491;DHT22;11412;50.802;4.350;2023-04-03T12:47:55;14.30;97.60
22491;DHT22;11412;50.802;4.350;2023-04-03T12:50:40;14.70;97.90
22491;DHT22;11412;50.802;4.350;2023-04-03T12:55:40;14.30;96.30
22491;DHT22;11412;50.802;4.350;2023-04-03T12:58:27;14.50;97.90
22491;DHT22;11412;50.802;4.350;2023-04-03T13:01:04;14.90;97.70
22491;DHT22;11412;50.802;4.350;2023-04-03T13:03:42;15.10;94.50
22491;DHT22;11412;50.802;4.350;2023-04-03T13:06:24;15.10;96.20
22491;DHT22;11412;50.802;4.350;2023-04-03T13:08:59;14.70;94.10
22491;DHT22;11412;50.802;4.350;2023-04-03T13:11:38;14.70;94.50
22491;DHT22;11412;50.802;4.350;2023-04-03T13:14:16;14.20;96.10
22491;DHT22;11412;50.802;4.350;2023-04-03T13:16:55;14.20;95.30
22491;DHT22;11412;50.802;4.350;2023-04-03T13:19:23;14.10;94.30
22491;DHT22;11412;50.802;4.350;2023-04-03T13:21:49;13.70;95.00
22491;DHT22;11412;50.802;4.350;2023-04-03T13:24:17;13.60;94.00
22491;DHT22;11412;50.802;4.350;2023-04-03T13:26:43;13.10;94.50
22491;DHT22;11412;50.802;4.350;2023-04-03T13:29:33;13.50;95.40
22491;DHT22;11412;50.802;4.350;2023-04-03T13:32:00;14.30;93.50
22491;DHT22;11412;50.802;4.350;2023-04-03T13:34:29;14.50;93.50
22491;DHT22;11412;50.802;4.350;2023-04-03T13:37:01;14.70;93.80
22491;DHT22;11412;50.802;4.350;2023-04-03T13:39:33;14.90;97.00
22491;DHT22;11412;50.802;4.350;2023-04-03T13:42:02;15.20;96.30
22491;DHT22;11412;50.802;4.350;2023-04-03T13:44:39;14.90;92.70
22491;DHT22;11412;50.802;4.350;2023-04-03T13:47:20;14.70;94.40
22491;DHT22;11412;50.802;4.350;2023-04-03T13:52:52;15.20;93.80
22491;DHT22;11412;50.802;4.350;2023-04-03T13:55:32;15.20;93.00
22491;DHT22;11412;50.802;4.350;2023-04-03T13:58:01;14.90;93.60
22491;DHT22;11412;50.802;4.350;2023-04-03T14:00:33;15.10;94.70
22491;DHT22;11412;50.802;4.350;2023-04-03T14:02:59;14.60;92.10
22491;DHT22;11412;50.802;4.350;2023-04-03T14:05:25;14.50;92.00
22491;DHT22;11412;50.802;4.350;2023-04-03T14:07:53;14.50;92.70
22491;DHT22;11412;50.802;4.350;2023-04-03T14:10:19;14.40;92.60
22491;DHT22;11412;50.802;4.350;2023-04-03T14:12:45;14.00;93.70
22491;DHT22;11412;50.802;4.350;2023-04-03T14:15:24;14.10;92.50
22491;DHT22;11412;50.802;4.350;2023-04-03T14:17:52;13.80;94.10
22491;DHT22;11412;50.802;4.350;2023-04-03T14:20:23;13.90;93.50
22491;DHT22;11412;50.802;4.350;2023-04-03T14:22:49;14.30;95.70
22491;DHT22;11412;50.802;4.350;2023-04-03T14:25:17;14.50;93.80
22491;DHT22;11412;50.802;4.350;2023-04-03T14:27:46;13.80;93.80
22491;DHT22;11412;50.802;4.350;2023-04-03T14:30:27;13.50;95.20
22491;DHT22;11412;50.802;4.350;2023-04-03T14:32:53;13.70;95.30
22491;DHT22;11412;50.802;4.350;2023-04-03T14:35:20;13.80;94.00
22491;DHT22;11412;50.802;4.350;2023-04-03T14:37:47;13.70;94.50
22491;DHT22;11412;50.802;4.350;2023-04-03T14:40:16;13.80;93.00
22491;DHT22;11412;50.802;4.350;2023-04-03T14:42:42;13.70;93.30
22491;DHT22;11412;50.802;4.350;2023-04-03T14:45:12;13.70;92.90
22491;DHT22;11412;50.802;4.350;2023-04-03T14:47:51;14.10;94.20
22491;DHT22;11412;50.802;4.350;2023-04-03T14:50:20;14.20;93.90
22491;DHT22;11412;50.802;4.350;2023-04-03T14:52:47;14.00;92.60
22491;DHT22;11412;50.802;4.350;2023-04-03T14:55:18;13.90;96.00
22491;DHT22;11412;50.802;4.350;2023-04-03T14:57:44;13.80;93.40
22491;DHT22;11412;50.802;4.350;2023-04-03T15:00:20;13.80;93.70
22491;DHT22;11412;50.802;4.350;2023-04-03T15:02:47;13.70;93.10
22491;DHT22;11412;50.802;4.350;2023-04-03T15:05:13;14.10;93.10
22491;DHT22;11412;50.802;4.350;2023-04-03T15:07:48;13.90;91.30
22491;DHT22;11412;50.802;4.350;2023-04-03T15:12:44;14.00;93.10
22491;DHT22;11412;50.802;4.350;2023-04-03T15:15:10;13.90;91.30
22491;DHT22;11412;50.802;4.350;2023-04-03T15:17:36;13.10;91.00
22491;DHT22;11412;50.802;4.350;2023-04-03T15:20:03;12.70;92.00
22491;DHT22;11412;50.802;4.350;2023-04-03T15:22:31;12.80;93.40
22491;DHT22;11412;50.802;4.350;2023-04-03T15:24:57;12.70;92.90
22491;DHT22;11412;50.802;4.350;2023-04-03T15:27:23;13.00;94.80
22491;DHT22;11412;50.802;4.350;2023-04-03T15:29:48;13.20;93.50
22491;DHT22;11412;50.802;4.350;2023-04-03T15:32:14;13.20;92.60
22491;DHT22;11412;50.802;4.350;2023-04-03T15:34:40;13.20;92.80
22491;DHT22;11412;50.802;4.350;2023-04-03T15:37:06;13.30;93.90
22491;DHT22;11412;50.802;4.350;2023-04-03T15:39:31;13.20;93.30
22491;DHT22;11412;50.802;4.350;2023-04-03T15:41:58;13.00;94.70
22491;DHT22;11412;50.802;4.350;2023-04-03T15:44:32;13.00;93.20
22491;DHT22;11412;50.802;4.350;2023-04-03T15:46:59;12.60;93.40
22491;DHT22;11412;50.802;4.350;2023-04-03T15:49:25;12.70;94.40
22491;DHT22;11412;50.802;4.350;2023-04-03T15:51:51;12.60;94.20
22491;DHT22;11412;50.802;4.350;2023-04-03T15:54:17;12.40;94.80
22491;DHT22;11412;50.802;4.350;2023-04-03T15:56:43;12.50;94.50
22491;DHT22;11412;50.802;4.350;2023-04-03T15:59:09;12.80;94.40
22491;DHT22;11412;50.802;4.350;2023-04-03T16:01:36;12.90;94.40
22491;DHT22;11412;50.802;4.350;2023-04-03T16:04:03;13.00;95.30
22491;DHT22;11412;50.802;4.350;2023-04-03T16:06:28;12.80;95.10
22491;DHT22;11412;50.802;4.350;2023-04-03T16:08:58;12.60;94.00
22491;DHT22;11412;50.802;4.350;2023-04-03T16:11:25;12.40;95.30
22491;DHT22;11412;50.802;4.350;2023-04-03T16:13:51;12.30;95.40
22491;DHT22;11412;50.802;4.350;2023-04-03T16:16:17;12.30;97.50
22491;DHT22;11412;50.802;4.350;2023-04-03T16:18:43;12.20;97.00
22491;DHT22;11412;50.802;4.350;2023-04-03T16:21:09;12.20;96.80
22491;DHT22;11412;50.802;4.350;2023-04-03T16:23:35;12.20;96.90
22491;DHT22;11412;50.802;4.350;2023-04-03T16:26:01;12.20;96.50
22491;DHT22;11412;50.802;4.350;2023-04-03T16:28:26;12.10;97.30
22491;DHT22;11412;50.802;4.350;2023-04-03T16:30:52;11.90;96.40
22491;DHT22;11412;50.802;4.350;2023-04-03T16:33:18;11.90;96.20
22491;DHT22;11412;50.802;4.350;2023-04-03T16:35:47;11.80;97.00
22491;DHT22;11412;50.802;4.350;2023-04-03T16:38:14;11.70;97.10
22491;DHT22;11412;50.802;4.350;2023-04-03T16:40:40;11.80;97.70
22491;DHT22;11412;50.802;4.350;2023-04-03T16:43:06;11.90;99.30
22491;DHT22;11412;50.802;4.350;2023-04-03T16:45:32;11.80;99.00
22491;DHT22;11412;50.802;4.350;2023-04-03T16:47:57;11.90;98.30
22491;DHT22;11412;50.802;4.350;2023-04-03T16:50:23;12.00;98.50
22491;DHT22;11412;50.802;4.350;2023-04-03T16:52:52;11.70;98.70
22491;DHT22;11412;50.802;4.350;2023-04-03T16:55:18;11.80;98.70
22491;DHT22;11412;50.802;4.350;2023-04-03T16:57:43;11.50;98.80
22491;DHT22;11412;50.802;4.350;2023-04-03T17:00:09;11.50;99.50
22491;DHT22;11412;50.802;4.350;2023-04-03T17:02:35;11.40;99.50
22491;DHT22;11412;50.802;4.350;2023-04-03T17:05:01;11.30;98.90
22491;DHT22;11412;50.802;4.350;2023-04-03T17:07:26;11.20;99.20
22491;DHT22;11412;50.802;4.350;2023-04-03T17:09:52;11.20;99.40
22491;DHT22;11412;50.802;4.350;2023-04-03T17:12:19;11.50;98.90
22491;DHT22;11412;50.802;4.350;2023-04-03T17:14:45;11.10;99.20